createdAt,value
2022-12-01T00:01:23.963Z,3.80
2022-12-01T00:03:50.510Z,3.70
2022-12-01T00:06:18.923Z,3.70
2022-12-01T00:09:06.809Z,3.70
2022-12-01T00:11:34.137Z,3.70
2022-12-01T00:14:00.947Z,3.60
2022-12-01T00:16:27.911Z,3.60
2022-12-01T00:18:54.394Z,3.50
2022-12-01T00:21:22.518Z,3.50
2022-12-01T00:23:51.160Z,3.50
2022-12-01T00:26:18.387Z,3.60
2022-12-01T00:28:48.645Z,3.50
2022-12-01T00:31:15.453Z,3.50
2022-12-01T00:33:41.959Z,3.50
2022-12-01T00:36:09.007Z,3.50
2022-12-01T00:38:35.477Z,3.50
2022-12-01T00:41:02.646Z,3.50
2022-12-01T00:43:29.413Z,3.50
2022-12-01T00:46:00.689Z,3.50
2022-12-01T00:48:27.227Z,3.50
2022-12-01T00:50:54.895Z,3.40
2022-12-01T00:53:22.050Z,3.40
2022-12-01T00:55:48.573Z,3.50
2022-12-01T00:58:15.470Z,3.50
2022-12-01T01:00:42.774Z,3.40
2022-12-01T01:03:10.050Z,3.50
2022-12-01T01:05:37.647Z,3.50
2022-12-01T01:08:08.022Z,3.50
2022-12-01T01:10:38.361Z,3.50
2022-12-01T01:13:05.158Z,3.50
2022-12-01T01:15:32.047Z,3.50
2022-12-01T01:17:58.488Z,3.50
2022-12-01T01:20:25.485Z,3.50
2022-12-01T01:22:52.371Z,3.50
2022-12-01T01:25:19.265Z,3.60
2022-12-01T01:27:45.792Z,3.60
2022-12-01T01:30:13.481Z,3.50
2022-12-01T01:32:39.981Z,3.40
2022-12-01T01:35:06.733Z,3.40
2022-12-01T01:37:33.617Z,3.40
2022-12-01T01:40:00.093Z,3.40
2022-12-01T01:42:26.991Z,3.40
2022-12-01T01:44:55.386Z,3.30
2022-12-01T01:47:25.573Z,3.30
2022-12-01T01:49:52.895Z,3.30
2022-12-01T01:52:19.474Z,3.20
2022-12-01T01:54:47.444Z,3.20
2022-12-01T01:57:16.227Z,3.20
2022-12-01T01:59:46.030Z,3.20
2022-12-01T02:02:13.003Z,3.30
2022-12-01T02:04:42.169Z,3.20
2022-12-01T02:07:09.524Z,3.00
2022-12-01T02:09:36.459Z,3.00
2022-12-01T02:12:06.035Z,3.00
2022-12-01T02:14:53.178Z,3.00
2022-12-01T02:17:41.770Z,3.00
2022-12-01T02:20:27.739Z,3.00
2022-12-01T02:22:57.343Z,2.90
2022-12-01T02:25:24.222Z,2.80
2022-12-01T02:28:08.825Z,2.80
2022-12-01T02:30:41.309Z,2.70
2022-12-01T02:33:19.408Z,2.80
2022-12-01T02:35:45.854Z,2.80
2022-12-01T02:38:21.910Z,2.80
2022-12-01T02:40:57.928Z,2.80
2022-12-01T02:43:33.177Z,1.60
2022-12-01T02:46:10.862Z,2.80
2022-12-01T02:48:40.277Z,2.70
2022-12-01T02:51:10.520Z,2.70
2022-12-01T02:53:37.464Z,2.60
2022-12-01T02:56:06.233Z,2.70
2022-12-01T02:58:33.141Z,2.60
2022-12-01T03:01:29.317Z,2.60
2022-12-01T03:03:59.220Z,2.60
2022-12-01T03:06:36.849Z,2.60
2022-12-01T03:09:06.089Z,2.60
2022-12-01T03:11:40.564Z,2.50
2022-12-01T03:14:26.188Z,2.50
2022-12-01T03:16:53.661Z,2.50
2022-12-01T03:19:26.249Z,2.50
2022-12-01T03:21:57.248Z,2.60
2022-12-01T03:24:26.586Z,2.50
2022-12-01T03:26:57.512Z,2.50
2022-12-01T03:29:31.009Z,2.50
2022-12-01T03:32:04.041Z,2.50
2022-12-01T03:34:35.990Z,2.50
2022-12-01T03:37:09.944Z,2.50
2022-12-01T03:39:38.811Z,2.50
2022-12-01T03:42:23.825Z,2.40
2022-12-01T03:44:53.762Z,2.30
2022-12-01T03:47:25.310Z,2.30
2022-12-01T03:49:52.957Z,2.30
2022-12-01T03:52:19.821Z,2.30
2022-12-01T03:54:52.840Z,2.30
2022-12-01T03:57:29.340Z,2.30
2022-12-01T03:59:56.550Z,2.30
2022-12-01T04:02:27.469Z,2.30
2022-12-01T04:04:54.043Z,2.20
2022-12-01T04:07:21.547Z,2.30
2022-12-01T04:09:48.767Z,2.30
2022-12-01T04:12:30.792Z,2.30
2022-12-01T04:14:57.983Z,2.30
2022-12-01T04:17:25.268Z,2.30
2022-12-01T04:19:52.586Z,2.30
2022-12-01T04:22:19.223Z,2.30
2022-12-01T04:24:46.397Z,2.30
2022-12-01T04:27:12.999Z,2.30
2022-12-01T04:29:39.932Z,2.30
2022-12-01T04:32:06.433Z,2.20
2022-12-01T04:34:33.370Z,2.30
2022-12-01T04:37:00.462Z,2.30
2022-12-01T04:39:27.360Z,2.30
2022-12-01T04:41:54.255Z,2.50
2022-12-01T04:44:20.858Z,2.30
2022-12-01T04:46:47.813Z,2.30
2022-12-01T04:49:14.746Z,2.30
2022-12-01T04:51:41.626Z,2.30
2022-12-01T04:54:08.114Z,2.30
2022-12-01T04:56:34.618Z,2.40
2022-12-01T04:59:03.776Z,2.30
2022-12-01T05:01:30.291Z,2.40
2022-12-01T05:03:57.302Z,2.40
2022-12-01T05:06:24.931Z,2.40
2022-12-01T05:08:51.658Z,2.50
2022-12-01T05:11:18.783Z,2.40
2022-12-01T05:13:46.357Z,2.40
2022-12-01T05:16:14.866Z,2.40
2022-12-01T05:18:41.530Z,2.40
2022-12-01T05:21:09.245Z,2.40
2022-12-01T05:23:36.717Z,2.40
2022-12-01T05:26:04.674Z,2.40
2022-12-01T05:28:31.173Z,2.40
2022-12-01T05:30:58.095Z,2.30
2022-12-01T05:33:25.752Z,2.30
2022-12-01T05:35:52.601Z,2.30
2022-12-01T05:38:19.901Z,2.20
2022-12-01T05:40:53.455Z,2.20
2022-12-01T05:43:26.914Z,2.10
2022-12-01T05:45:55.929Z,2.10
2022-12-01T05:48:22.978Z,2.20
2022-12-01T05:50:49.905Z,2.20
2022-12-01T05:53:16.713Z,2.20
2022-12-01T05:55:43.676Z,2.30
2022-12-01T05:58:10.303Z,2.20
2022-12-01T06:00:43.721Z,2.20
2022-12-01T06:03:12.393Z,2.20
2022-12-01T06:05:38.992Z,2.20
2022-12-01T06:08:05.962Z,2.20
2022-12-01T06:10:32.457Z,2.20
2022-12-01T06:12:59.347Z,2.30
2022-12-01T06:15:26.116Z,2.30
2022-12-01T06:17:53.163Z,2.30
2022-12-01T06:20:19.686Z,2.30
2022-12-01T06:22:46.224Z,2.40
2022-12-01T06:25:13.238Z,2.40
2022-12-01T06:27:39.738Z,2.40
2022-12-01T06:30:10.168Z,2.40
2022-12-01T06:32:36.676Z,2.40
2022-12-01T06:35:03.613Z,2.40
2022-12-01T06:37:30.487Z,2.40
2022-12-01T06:39:57.368Z,1.80
2022-12-01T06:42:23.875Z,2.30
2022-12-01T06:44:50.780Z,2.30
2022-12-01T06:47:17.244Z,2.20
2022-12-01T06:49:44.365Z,2.20
2022-12-01T06:52:11.265Z,2.20
2022-12-01T06:54:38.265Z,2.20
2022-12-01T06:57:04.826Z,2.20
2022-12-01T06:59:32.034Z,2.20
2022-12-01T07:01:59.376Z,2.30
2022-12-01T07:04:26.414Z,2.20
2022-12-01T07:06:52.880Z,2.20
2022-12-01T07:09:19.353Z,2.20
2022-12-01T07:11:46.240Z,2.20
2022-12-01T07:14:23.254Z,2.20
2022-12-01T07:16:50.298Z,2.30
2022-12-01T07:19:16.804Z,2.20
2022-12-01T07:21:43.620Z,2.20
2022-12-01T07:24:12.784Z,2.20
2022-12-01T07:26:40.993Z,2.20
2022-12-01T07:29:09.046Z,2.20
2022-12-01T07:31:36.320Z,2.20
2022-12-01T07:34:02.849Z,2.20
2022-12-01T07:36:29.325Z,2.20
2022-12-01T07:38:56.232Z,2.20
2022-12-01T07:41:22.819Z,2.10
2022-12-01T07:43:49.706Z,2.20
2022-12-01T07:46:24.550Z,2.20
2022-12-01T07:48:53.296Z,2.20
2022-12-01T07:51:20.796Z,2.30
2022-12-01T07:53:49.146Z,2.30
2022-12-01T07:56:16.104Z,2.30
2022-12-01T07:58:43.435Z,2.30
2022-12-01T08:01:12.179Z,2.30
2022-12-01T08:03:39.092Z,2.20
2022-12-01T08:06:06.748Z,2.20
2022-12-01T08:08:35.033Z,2.20
2022-12-01T08:11:02.926Z,2.10
2022-12-01T08:13:29.519Z,2.10
2022-12-01T08:15:56.456Z,2.10
2022-12-01T08:18:23.135Z,2.20
2022-12-01T08:20:50.494Z,2.30
2022-12-01T08:23:17.017Z,2.20
2022-12-01T08:25:43.511Z,2.30
2022-12-01T08:30:57.734Z,2.50
2022-12-01T08:33:24.735Z,2.50
2022-12-01T08:35:51.686Z,2.60
2022-12-01T08:38:18.637Z,2.70
2022-12-01T08:40:45.114Z,2.60
2022-12-01T08:43:28.269Z,2.60
2022-12-01T08:45:59.531Z,2.70
2022-12-01T08:48:26.656Z,2.60
2022-12-01T08:53:49.106Z,2.60
2022-12-01T08:56:18.041Z,2.70
2022-12-01T08:58:44.587Z,2.70
2022-12-01T09:01:12.368Z,2.70
2022-12-01T09:03:39.429Z,2.70
2022-12-01T09:06:20.615Z,2.80
2022-12-01T09:08:47.450Z,2.70
2022-12-01T09:11:15.980Z,2.70
2022-12-01T09:13:43.407Z,2.60
2022-12-01T09:16:14.484Z,2.50
2022-12-01T09:18:42.459Z,2.50
2022-12-01T09:21:09.838Z,2.40
2022-12-01T09:23:36.312Z,2.40
2022-12-01T09:26:03.481Z,2.40
2022-12-01T09:28:29.942Z,2.40
2022-12-01T09:30:57.146Z,2.40
2022-12-01T09:33:24.052Z,2.40
2022-12-01T09:35:51.009Z,2.40
2022-12-01T09:38:17.522Z,2.40
2022-12-01T09:40:44.493Z,2.30
2022-12-01T09:43:20.026Z,2.30
2022-12-01T09:45:48.761Z,2.40
2022-12-01T09:48:22.800Z,2.40
2022-12-01T09:50:49.676Z,2.40
2022-12-01T09:53:19.924Z,2.40
2022-12-01T09:55:46.521Z,2.40
2022-12-01T09:58:17.130Z,2.30
2022-12-01T10:00:44.327Z,2.30
2022-12-01T10:03:17.501Z,2.30
2022-12-01T10:06:10.443Z,2.30
2022-12-01T10:08:36.198Z,2.30
2022-12-01T10:11:16.488Z,2.40
2022-12-01T10:13:43.941Z,2.40
2022-12-01T10:16:16.494Z,2.50
2022-12-01T10:18:46.032Z,2.60
2022-12-01T10:21:28.214Z,2.60
2022-12-01T10:24:01.140Z,2.60
2022-12-01T10:26:28.613Z,2.60
2022-12-01T10:28:58.500Z,2.60
2022-12-01T10:31:30.724Z,2.60
2022-12-01T10:34:06.081Z,2.60
2022-12-01T10:36:33.992Z,2.60
2022-12-01T10:39:02.322Z,2.60
2022-12-01T10:41:31.156Z,2.60
2022-12-01T10:44:00.639Z,2.60
2022-12-01T10:46:35.773Z,2.50
2022-12-01T10:49:08.054Z,2.50
2022-12-01T10:51:46.217Z,2.60
2022-12-01T10:54:12.697Z,2.50
2022-12-01T10:56:40.954Z,2.50
2022-12-01T10:59:25.976Z,2.60
2022-12-01T11:01:55.956Z,2.50
2022-12-01T11:04:35.095Z,2.50
2022-12-01T11:07:02.466Z,2.50
2022-12-01T11:09:30.410Z,2.50
2022-12-01T11:11:58.857Z,2.50
2022-12-01T11:14:28.985Z,2.50
2022-12-01T11:16:55.541Z,2.50
2022-12-01T11:19:33.652Z,2.60
2022-12-01T11:22:01.543Z,2.60
2022-12-01T11:24:41.956Z,2.60
2022-12-01T11:27:18.728Z,2.60
2022-12-01T11:29:50.233Z,2.70
2022-12-01T11:32:19.481Z,2.70
2022-12-01T11:34:54.469Z,2.70
2022-12-01T11:37:23.108Z,2.70
2022-12-01T11:39:50.683Z,2.70
2022-12-01T11:42:26.209Z,2.60
2022-12-01T11:44:54.656Z,2.60
2022-12-01T11:47:26.009Z,2.70
2022-12-01T11:50:00.290Z,2.60
2022-12-01T11:52:32.978Z,2.60
2022-12-01T11:55:05.591Z,2.60
2022-12-01T11:57:37.065Z,2.60
2022-12-01T12:00:20.505Z,2.60
2022-12-01T12:02:54.988Z,2.60
2022-12-01T12:05:42.793Z,2.50
2022-12-01T12:08:12.253Z,2.50
2022-12-01T12:10:53.927Z,2.60
2022-12-01T12:13:23.170Z,2.60
2022-12-01T12:16:02.274Z,2.60
2022-12-01T12:18:48.035Z,2.60
2022-12-01T12:21:17.515Z,2.50
2022-12-01T12:24:03.241Z,2.50
2022-12-01T12:26:32.790Z,2.50
2022-12-01T12:29:12.357Z,2.50
2022-12-01T12:32:04.586Z,2.50
2022-12-01T12:34:44.649Z,2.50
2022-12-01T12:37:26.113Z,2.50
2022-12-01T12:40:25.576Z,2.60
2022-12-01T12:42:55.573Z,2.60
2022-12-01T12:45:35.304Z,2.60
2022-12-01T12:48:02.141Z,2.60
2022-12-01T12:50:44.887Z,2.50
2022-12-01T12:53:18.298Z,2.60
2022-12-01T12:55:53.095Z,2.60
2022-12-01T12:58:25.551Z,2.60
2022-12-01T13:00:58.279Z,2.60
2022-12-01T13:03:34.095Z,2.50
2022-12-01T13:06:04.812Z,2.50
2022-12-01T13:08:38.022Z,2.50
2022-12-01T13:11:08.378Z,2.50
2022-12-01T13:13:54.244Z,2.50
2022-12-01T13:16:23.665Z,2.50
2022-12-01T13:19:02.997Z,2.50
2022-12-01T13:21:32.335Z,2.50
2022-12-01T13:23:58.847Z,2.40
2022-12-01T13:26:25.444Z,2.40
2022-12-01T13:28:54.619Z,2.50
2022-12-01T13:31:21.686Z,2.60
2022-12-01T13:33:56.856Z,2.60
2022-12-01T13:36:45.640Z,2.60
2022-12-01T13:39:18.917Z,2.60
2022-12-01T13:41:56.775Z,2.60
2022-12-01T13:44:25.537Z,2.50
2022-12-01T13:46:56.958Z,2.50
2022-12-01T13:49:40.324Z,2.50
2022-12-01T13:52:16.465Z,2.50
2022-12-01T13:55:01.752Z,2.50
2022-12-01T13:57:30.645Z,2.50
2022-12-01T14:00:00.322Z,2.50
2022-12-01T14:02:28.196Z,2.50
2022-12-01T14:04:55.185Z,2.50
2022-12-01T14:07:27.859Z,2.70
2022-12-01T14:09:57.933Z,2.60
2022-12-01T14:12:26.758Z,2.60
2022-12-01T14:15:04.272Z,2.60
2022-12-01T14:17:32.274Z,2.60
2022-12-01T14:20:08.770Z,2.70
2022-12-01T14:22:37.520Z,2.60
2022-12-01T14:25:07.534Z,2.70
2022-12-01T14:27:36.164Z,2.60
2022-12-01T14:30:21.136Z,2.60
2022-12-01T14:32:48.040Z,2.60
2022-12-01T14:35:14.915Z,2.50
2022-12-01T14:37:44.122Z,2.50
2022-12-01T14:40:17.165Z,2.50
2022-12-01T14:43:03.936Z,2.50
2022-12-01T14:45:35.369Z,2.40
2022-12-01T14:48:04.327Z,2.40
2022-12-01T14:50:39.541Z,2.40
2022-12-01T14:53:23.362Z,2.40
2022-12-01T14:55:56.547Z,2.40
2022-12-01T14:58:28.652Z,2.50
2022-12-01T15:00:55.577Z,2.50
2022-12-01T15:03:23.210Z,2.40
2022-12-01T15:05:52.049Z,2.40
2022-12-01T15:11:30.119Z,2.50
2022-12-01T15:13:58.235Z,2.50
2022-12-01T15:16:26.666Z,2.60
2022-12-01T15:18:53.405Z,2.50
2022-12-01T15:21:24.899Z,2.50
2022-12-01T15:23:56.753Z,2.50
2022-12-01T15:26:24.750Z,2.50
2022-12-01T15:29:03.083Z,2.50
2022-12-01T15:31:30.098Z,2.50
2022-12-01T15:33:56.707Z,2.50
2022-12-01T15:36:23.307Z,2.50
2022-12-01T15:38:50.336Z,2.50
2022-12-01T15:41:34.094Z,2.50
2022-12-01T15:44:05.384Z,2.50
2022-12-01T15:46:34.689Z,2.50
2022-12-01T15:49:09.115Z,2.50
2022-12-01T15:51:35.655Z,2.50
2022-12-01T15:54:03.163Z,2.50
2022-12-01T15:56:32.026Z,2.50
2022-12-01T15:59:02.617Z,2.50
2022-12-01T16:01:30.107Z,2.50
2022-12-01T16:04:05.873Z,2.50
2022-12-01T16:06:34.669Z,2.50
2022-12-01T16:09:06.420Z,2.50
2022-12-01T16:11:33.105Z,2.50
2022-12-01T16:14:05.079Z,2.50
2022-12-01T16:16:45.038Z,2.50
2022-12-01T16:19:11.984Z,2.50
2022-12-01T16:21:50.202Z,2.60
2022-12-01T16:24:23.229Z,2.50
2022-12-01T16:26:51.562Z,2.50
2022-12-01T16:29:19.866Z,2.50
2022-12-01T16:32:12.481Z,2.50
2022-12-01T16:34:45.708Z,2.50
2022-12-01T16:37:14.460Z,2.50
2022-12-01T16:39:40.977Z,2.50
2022-12-01T16:42:10.600Z,2.50
2022-12-01T16:44:37.616Z,2.50
2022-12-01T16:47:09.605Z,2.50
2022-12-01T16:49:36.377Z,2.50
2022-12-01T16:52:21.982Z,2.60
2022-12-01T16:54:50.559Z,2.50
2022-12-01T16:57:17.310Z,2.50
2022-12-01T16:59:44.135Z,2.50
2022-12-01T17:02:11.969Z,2.50
2022-12-01T17:04:38.497Z,2.50
2022-12-01T17:07:05.055Z,2.50
2022-12-01T17:09:31.951Z,2.50
2022-12-01T17:11:59.156Z,2.40
2022-12-01T17:14:25.708Z,2.40
2022-12-01T17:16:52.672Z,2.40
2022-12-01T17:19:19.233Z,2.40
2022-12-01T17:21:45.759Z,2.40
2022-12-01T17:24:17.598Z,2.30
2022-12-01T17:26:45.447Z,2.30
2022-12-01T17:29:12.347Z,2.30
2022-12-01T17:31:39.352Z,2.40
2022-12-01T17:34:05.903Z,2.30
2022-12-01T17:36:32.377Z,2.30
2022-12-01T17:38:59.370Z,2.30
2022-12-01T17:41:31.971Z,2.30
2022-12-01T17:43:59.314Z,2.30
2022-12-01T17:46:25.915Z,2.30
2022-12-01T17:48:52.416Z,2.30
2022-12-01T17:51:19.436Z,2.10
2022-12-01T17:53:46.008Z,2.10
2022-12-01T17:56:13.841Z,2.10
2022-12-01T17:58:40.342Z,2.10
2022-12-01T18:01:12.465Z,2.10
2022-12-01T18:03:38.949Z,2.10
2022-12-01T18:06:05.512Z,2.10
2022-12-01T18:08:34.126Z,2.10
2022-12-01T18:11:02.192Z,2.10
2022-12-01T18:13:28.864Z,2.20
2022-12-01T18:15:55.818Z,2.10
2022-12-01T18:18:22.341Z,2.10
2022-12-01T18:20:48.841Z,2.10
2022-12-01T18:23:15.736Z,2.10
2022-12-01T18:25:42.201Z,2.20
2022-12-01T18:28:10.848Z,2.10
2022-12-01T18:30:39.042Z,2.10
2022-12-01T18:33:08.543Z,2.20
2022-12-01T18:35:35.039Z,2.20
2022-12-01T18:38:01.980Z,2.20
2022-12-01T18:40:28.466Z,2.20
2022-12-01T18:42:54.974Z,2.20
2022-12-01T18:45:21.923Z,2.30
2022-12-01T18:47:48.395Z,2.20
2022-12-01T18:50:14.932Z,2.20
2022-12-01T18:52:41.890Z,2.20
2022-12-01T18:55:09.166Z,2.20
2022-12-01T18:57:35.651Z,2.20
2022-12-01T19:00:04.496Z,2.10
2022-12-01T19:02:31.505Z,2.20
2022-12-01T19:04:58.052Z,2.10
2022-12-01T19:07:29.588Z,2.20
2022-12-01T19:09:56.343Z,2.10
2022-12-01T19:12:22.854Z,2.10
2022-12-01T19:14:50.302Z,2.10
2022-12-01T19:17:16.983Z,2.10
2022-12-01T19:19:43.468Z,2.10
2022-12-01T19:22:10.374Z,2.10
2022-12-01T19:24:37.301Z,2.10
2022-12-01T19:27:04.348Z,2.10
2022-12-01T19:29:31.340Z,2.10
2022-12-01T19:31:58.485Z,2.00
2022-12-01T19:34:25.764Z,2.00
2022-12-01T19:36:53.972Z,2.00
2022-12-01T19:39:20.498Z,2.00
2022-12-01T19:41:46.976Z,2.60
2022-12-01T19:44:13.905Z,2.00
2022-12-01T19:46:40.447Z,2.10
2022-12-01T19:49:07.424Z,2.10
2022-12-01T19:51:35.406Z,2.00
2022-12-01T19:54:03.346Z,2.00
2022-12-01T19:56:29.902Z,2.00
2022-12-01T19:58:57.590Z,2.00
2022-12-01T20:01:24.176Z,2.00
2022-12-01T20:03:51.367Z,1.90
2022-12-01T20:06:28.597Z,1.90
2022-12-01T20:08:56.009Z,2.00
2022-12-01T20:11:22.958Z,2.00
2022-12-01T20:13:50.064Z,2.00
2022-12-01T20:16:20.872Z,2.00
2022-12-01T20:18:48.104Z,2.00
2022-12-01T20:21:18.899Z,2.00
2022-12-01T20:23:46.550Z,1.90
2022-12-01T20:26:14.048Z,1.90
2022-12-01T20:28:41.060Z,1.90
2022-12-01T20:31:12.243Z,2.00
2022-12-01T20:33:39.515Z,2.00
2022-12-01T20:36:07.014Z,2.00
2022-12-01T20:38:34.065Z,2.00
2022-12-01T20:41:00.590Z,2.00
2022-12-01T20:43:27.525Z,1.90
2022-12-01T20:45:54.212Z,1.90
2022-12-01T20:48:20.701Z,2.00
2022-12-01T20:50:47.809Z,1.90
2022-12-01T20:53:14.401Z,1.90
2022-12-01T20:55:40.943Z,1.60
2022-12-01T20:58:10.828Z,1.60
2022-12-01T21:00:38.743Z,1.50
2022-12-01T21:03:08.574Z,1.40
2022-12-01T21:05:37.910Z,1.30
2022-12-01T21:10:54.052Z,1.10
2022-12-01T21:13:43.844Z,1.10
2022-12-01T21:16:14.065Z,1.10
2022-12-01T21:19:00.978Z,1.20
2022-12-01T21:21:29.015Z,1.20
2022-12-01T21:24:08.234Z,1.20
2022-12-01T21:26:38.945Z,1.20
2022-12-01T21:29:23.105Z,1.20
2022-12-01T21:31:51.234Z,1.20
2022-12-01T21:34:19.180Z,1.20
2022-12-01T21:36:47.681Z,1.20
2022-12-01T21:39:16.016Z,1.30
2022-12-01T21:41:42.947Z,1.30
2022-12-01T21:44:14.858Z,1.20
2022-12-01T21:46:42.273Z,1.30
2022-12-01T21:49:10.848Z,1.20
2022-12-01T21:51:37.824Z,1.20
2022-12-01T21:54:06.499Z,1.30
2022-12-01T21:56:32.961Z,1.30
2022-12-01T21:59:06.617Z,1.20
2022-12-01T22:01:34.054Z,1.20
2022-12-01T22:04:02.615Z,1.30
2022-12-01T22:06:38.075Z,1.30
2022-12-01T22:09:23.531Z,1.30
2022-12-01T22:11:52.763Z,1.30
2022-12-01T22:14:22.626Z,1.30
2022-12-01T22:16:49.075Z,1.20
2022-12-01T22:19:15.977Z,1.20
2022-12-01T22:21:46.824Z,1.30
2022-12-01T22:24:19.502Z,1.20
2022-12-01T22:26:48.123Z,1.30
2022-12-01T22:29:25.160Z,1.20
2022-12-01T22:31:52.983Z,1.20
2022-12-01T22:34:19.785Z,1.20
2022-12-01T22:36:46.734Z,1.20
2022-12-01T22:39:29.535Z,1.20
2022-12-01T22:42:01.796Z,1.20
2022-12-01T22:44:30.308Z,1.20
2022-12-01T22:47:01.490Z,1.20
2022-12-01T22:49:28.475Z,1.20
2022-12-01T22:51:55.335Z,1.20
2022-12-01T22:54:26.721Z,1.20
2022-12-01T22:57:01.067Z,1.20
2022-12-01T22:59:29.664Z,1.30
2022-12-01T23:02:01.151Z,1.30
2022-12-01T23:04:54.360Z,1.30
2022-12-01T23:07:27.558Z,1.30
2022-12-01T23:09:56.468Z,1.30
2022-12-01T23:12:28.659Z,1.30
2022-12-01T23:14:57.898Z,1.30
2022-12-01T23:17:28.834Z,1.30
2022-12-01T23:20:02.718Z,1.30
2022-12-01T23:22:29.601Z,1.30
2022-12-01T23:24:56.407Z,1.30
2022-12-01T23:27:23.335Z,1.30
2022-12-01T23:29:49.806Z,1.30
2022-12-01T23:32:17.238Z,1.30
2022-12-01T23:34:44.183Z,1.20
2022-12-01T23:37:32.893Z,1.30
2022-12-01T23:40:00.130Z,1.20
2022-12-01T23:42:26.645Z,1.20
2022-12-01T23:44:53.821Z,1.20
2022-12-01T23:47:24.742Z,1.30
2022-12-01T23:49:58.352Z,1.30
2022-12-01T23:52:27.869Z,1.30
2022-12-01T23:54:54.333Z,1.30
2022-12-01T23:57:22.154Z,1.30
2022-12-01T23:59:49.438Z,1.30
